sensor_id;sensor_type;location;lat;lon;timestamp;temperature;humidity
15916;DHT22;8057;47.830;-3.870;2023-05-20T00:01:06;12.80;99.90
15916;DHT22;8057;47.830;-3.870;2023-05-20T00:05:16;12.70;99.90
15916;DHT22;8057;47.830;-3.870;2023-05-20T00:09:26;12.70;99.90
15916;DHT22;8057;47.830;-3.870;2023-05-20T00:13:36;12.70;99.90
15916;DHT22;8057;47.830;-3.870;2023-05-20T00:17:45;12.70;99.90
15916;DHT22;8057;47.830;-3.870;2023-05-20T00:21:57;12.70;99.90
15916;DHT22;8057;47.830;-3.870;2023-05-20T00:26:06;12.60;99.90
15916;DHT22;8057;47.830;-3.870;2023-05-20T00:30:15;12.70;99.90
15916;DHT22;8057;47.830;-3.870;2023-05-20T00:34:24;12.60;99.90
15916;DHT22;8057;47.830;-3.870;2023-05-20T00:38:36;12.50;99.90
15916;DHT22;8057;47.830;-3.870;2023-05-20T00:42:45;12.40;99.90
15916;DHT22;8057;47.830;-3.870;2023-05-20T00:46:55;12.40;99.90
15916;DHT22;8057;47.830;-3.870;2023-05-20T00:51:04;12.30;99.90
15916;DHT22;8057;47.830;-3.870;2023-05-20T00:55:15;12.10;99.90
15916;DHT22;8057;47.830;-3.870;2023-05-20T00:59:25;12.10;99.90
15916;DHT22;8057;47.830;-3.870;2023-05-20T01:03:34;12.00;99.90
15916;DHT22;8057;47.830;-3.870;2023-05-20T01:07:44;12.00;99.90
15916;DHT22;8057;47.830;-3.870;2023-05-20T01:12:00;11.90;99.90
15916;DHT22;8057;47.830;-3.870;2023-05-20T01:16:11;11.70;99.90
15916;DHT22;8057;47.830;-3.870;2023-05-20T01:20:21;11.70;99.90
15916;DHT22;8057;47.830;-3.870;2023-05-20T01:24:33;11.60;99.90
15916;DHT22;8057;47.830;-3.870;2023-05-20T01:28:42;11.60;99.90
15916;DHT22;8057;47.830;-3.870;2023-05-20T01:32:53;11.50;99.90
15916;DHT22;8057;47.830;-3.870;2023-05-20T01:37:04;11.40;99.90
15916;DHT22;8057;47.830;-3.870;2023-05-20T01:41:16;11.30;99.90
15916;DHT22;8057;47.830;-3.870;2023-05-20T01:45:25;11.20;99.90
15916;DHT22;8057;47.830;-3.870;2023-05-20T01:49:34;11.10;99.90
15916;DHT22;8057;47.830;-3.870;2023-05-20T01:53:43;11.00;99.90
15916;DHT22;8057;47.830;-3.870;2023-05-20T01:57:54;11.00;99.90
15916;DHT22;8057;47.830;-3.870;2023-05-20T02:02:03;11.00;99.90
15916;DHT22;8057;47.830;-3.870;2023-05-20T02:06:13;11.10;99.90
15916;DHT22;8057;47.830;-3.870;2023-05-20T02:10:22;11.00;99.90
15916;DHT22;8057;47.830;-3.870;2023-05-20T02:14:34;11.00;99.90
15916;DHT22;8057;47.830;-3.870;2023-05-20T02:18:43;10.90;99.90
15916;DHT22;8057;47.830;-3.870;2023-05-20T02:22:52;10.90;99.90
15916;DHT22;8057;47.830;-3.870;2023-05-20T02:27:01;10.90;99.90
15916;DHT22;8057;47.830;-3.870;2023-05-20T02:31:12;10.90;99.90
15916;DHT22;8057;47.830;-3.870;2023-05-20T02:35:22;10.90;99.90
15916;DHT22;8057;47.830;-3.870;2023-05-20T02:39:31;10.90;99.90
15916;DHT22;8057;47.830;-3.870;2023-05-20T02:43:41;10.80;99.90
15916;DHT22;8057;47.830;-3.870;2023-05-20T02:47:53;10.80;99.90
15916;DHT22;8057;47.830;-3.870;2023-05-20T02:52:02;10.80;99.90
15916;DHT22;8057;47.830;-3.870;2023-05-20T02:56:11;10.80;99.90
15916;DHT22;8057;47.830;-3.870;2023-05-20T03:00:21;10.80;99.90
15916;DHT22;8057;47.830;-3.870;2023-05-20T03:04:32;10.80;99.90
15916;DHT22;8057;47.830;-3.870;2023-05-20T03:08:45;10.70;99.90
15916;DHT22;8057;47.830;-3.870;2023-05-20T03:12:54;10.60;99.90
15916;DHT22;8057;47.830;-3.870;2023-05-20T03:17:04;10.60;99.90
15916;DHT22;8057;47.830;-3.870;2023-05-20T03:21:14;10.60;99.90
15916;DHT22;8057;47.830;-3.870;2023-05-20T03:25:24;10.60;99.90
15916;DHT22;8057;47.830;-3.870;2023-05-20T03:29:33;10.60;99.90
15916;DHT22;8057;47.830;-3.870;2023-05-20T03:33:42;10.60;99.90
15916;DHT22;8057;47.830;-3.870;2023-05-20T03:37:54;10.60;99.90
15916;DHT22;8057;47.830;-3.870;2023-05-20T03:42:03;10.60;99.90
15916;DHT22;8057;47.830;-3.870;2023-05-20T03:46:13;10.60;99.90
15916;DHT22;8057;47.830;-3.870;2023-05-20T03:50:22;10.50;99.90
15916;DHT22;8057;47.830;-3.870;2023-05-20T03:54:33;10.50;99.90
15916;DHT22;8057;47.830;-3.870;2023-05-20T03:58:43;10.50;99.90
15916;DHT22;8057;47.830;-3.870;2023-05-20T04:02:52;10.40;99.90
15916;DHT22;8057;47.830;-3.870;2023-05-20T04:07:03;10.40;99.90
15916;DHT22;8057;47.830;-3.870;2023-05-20T04:11:14;10.30;99.90
15916;DHT22;8057;47.830;-3.870;2023-05-20T04:15:23;10.20;99.90
15916;DHT22;8057;47.830;-3.870;2023-05-20T04:19:33;10.10;99.90
15916;DHT22;8057;47.830;-3.870;2023-05-20T04:23:42;9.90;99.90
15916;DHT22;8057;47.830;-3.870;2023-05-20T04:27:53;9.90;99.90
15916;DHT22;8057;47.830;-3.870;2023-05-20T04:32:04;9.80;99.90
15916;DHT22;8057;47.830;-3.870;2023-05-20T04:36:17;9.80;99.90
15916;DHT22;8057;47.830;-3.870;2023-05-20T04:40:27;9.80;99.90
15916;DHT22;8057;47.830;-3.870;2023-05-20T04:44:37;9.80;99.90
15916;DHT22;8057;47.830;-3.870;2023-05-20T04:48:48;9.80;99.90
15916;DHT22;8057;47.830;-3.870;2023-05-20T04:52:57;9.80;99.90
15916;DHT22;8057;47.830;-3.870;2023-05-20T04:57:06;9.80;99.90
15916;DHT22;8057;47.830;-3.870;2023-05-20T05:01:17;9.80;99.90
15916;DHT22;8057;47.830;-3.870;2023-05-20T05:05:27;9.80;99.90
15916;DHT22;8057;47.830;-3.870;2023-05-20T05:09:36;9.90;99.90
15916;DHT22;8057;47.830;-3.870;2023-05-20T05:13:45;10.00;99.90
15916;DHT22;8057;47.830;-3.870;2023-05-20T05:17:56;10.10;99.90
15916;DHT22;8057;47.830;-3.870;2023-05-20T05:22:05;10.10;99.90
15916;DHT22;8057;47.830;-3.870;2023-05-20T05:26:14;10.20;99.90
15916;DHT22;8057;47.830;-3.870;2023-05-20T05:30:23;10.20;99.90
15916;DHT22;8057;47.830;-3.870;2023-05-20T05:34:34;10.30;99.90
15916;DHT22;8057;47.830;-3.870;2023-05-20T05:38:43;10.40;99.90
15916;DHT22;8057;47.830;-3.870;2023-05-20T05:42:52;10.50;99.90
15916;DHT22;8057;47.830;-3.870;2023-05-20T05:47:02;10.60;99.90
15916;DHT22;8057;47.830;-3.870;2023-05-20T05:51:13;10.70;99.90
15916;DHT22;8057;47.830;-3.870;2023-05-20T05:55:23;10.80;99.90
15916;DHT22;8057;47.830;-3.870;2023-05-20T05:59:32;11.00;99.90
15916;DHT22;8057;47.830;-3.870;2023-05-20T06:03:41;11.10;99.90
15916;DHT22;8057;47.830;-3.870;2023-05-20T06:07:52;11.30;99.90
15916;DHT22;8057;47.830;-3.870;2023-05-20T06:12:01;11.40;99.90
15916;DHT22;8057;47.830;-3.870;2023-05-20T06:16:10;11.60;99.90
15916;DHT22;8057;47.830;-3.870;2023-05-20T06:20:19;11.70;99.90
15916;DHT22;8057;47.830;-3.870;2023-05-20T06:24:30;11.90;99.90
15916;DHT22;8057;47.830;-3.870;2023-05-20T06:28:40;12.00;99.90
15916;DHT22;8057;47.830;-3.870;2023-05-20T06:32:49;12.20;99.90
15916;DHT22;8057;47.830;-3.870;2023-05-20T06:36:58;12.30;99.90
15916;DHT22;8057;47.830;-3.870;2023-05-20T06:41:09;12.40;99.90
15916;DHT22;8057;47.830;-3.870;2023-05-20T06:45:18;12.50;99.90
15916;DHT22;8057;47.830;-3.870;2023-05-20T06:49:28;12.60;99.90
15916;DHT22;8057;47.830;-3.870;2023-05-20T06:53:37;12.70;99.90
15916;DHT22;8057;47.830;-3.870;2023-05-20T06:57:48;12.80;99.90
15916;DHT22;8057;47.830;-3.870;2023-05-20T07:01:57;12.90;99.90
15916;DHT22;8057;47.830;-3.870;2023-05-20T07:06:06;13.00;99.90
15916;DHT22;8057;47.830;-3.870;2023-05-20T07:10:15;13.20;99.90
15916;DHT22;8057;47.830;-3.870;2023-05-20T07:14:26;13.30;99.90
15916;DHT22;8057;47.830;-3.870;2023-05-20T07:18:35;13.40;99.90
15916;DHT22;8057;47.830;-3.870;2023-05-20T07:22:44;13.40;99.90
15916;DHT22;8057;47.830;-3.870;2023-05-20T07:26:55;13.50;99.90
15916;DHT22;8057;47.830;-3.870;2023-05-20T07:31:05;13.50;99.90
15916;DHT22;8057;47.830;-3.870;2023-05-20T07:35:15;13.50;99.90
15916;DHT22;8057;47.830;-3.870;2023-05-20T07:39:24;13.50;99.90
15916;DHT22;8057;47.830;-3.870;2023-05-20T07:43:34;13.70;99.90
15916;DHT22;8057;47.830;-3.870;2023-05-20T07:47:44;13.70;99.90
15916;DHT22;8057;47.830;-3.870;2023-05-20T07:51:54;13.80;99.90
15916;DHT22;8057;47.830;-3.870;2023-05-20T07:56:03;13.80;99.90
15916;DHT22;8057;47.830;-3.870;2023-05-20T08:00:13;13.90;99.90
15916;DHT22;8057;47.830;-3.870;2023-05-20T08:04:24;14.20;99.90
15916;DHT22;8057;47.830;-3.870;2023-05-20T08:08:34;14.20;99.90
15916;DHT22;8057;47.830;-3.870;2023-05-20T08:12:43;14.30;99.90
15916;DHT22;8057;47.830;-3.870;2023-05-20T08:16:52;14.40;99.90
15916;DHT22;8057;47.830;-3.870;2023-05-20T08:21:04;14.70;99.90
15916;DHT22;8057;47.830;-3.870;2023-05-20T08:25:14;14.80;99.90
15916;DHT22;8057;47.830;-3.870;2023-05-20T08:29:23;14.80;99.90
15916;DHT22;8057;47.830;-3.870;2023-05-20T08:33:32;15.00;99.90
15916;DHT22;8057;47.830;-3.870;2023-05-20T08:37:43;15.00;99.90
15916;DHT22;8057;47.830;-3.870;2023-05-20T08:41:53;15.10;99.90
15916;DHT22;8057;47.830;-3.870;2023-05-20T08:46:02;15.50;99.90
15916;DHT22;8057;47.830;-3.870;2023-05-20T08:50:14;15.70;99.90
15916;DHT22;8057;47.830;-3.870;2023-05-20T08:54:26;15.70;99.90
15916;DHT22;8057;47.830;-3.870;2023-05-20T08:58:40;15.80;99.90
15916;DHT22;8057;47.830;-3.870;2023-05-20T09:02:49;16.00;99.90
15916;DHT22;8057;47.830;-3.870;2023-05-20T09:06:59;16.30;99.90
15916;DHT22;8057;47.830;-3.870;2023-05-20T09:11:11;16.30;99.90
15916;DHT22;8057;47.830;-3.870;2023-05-20T09:15:20;16.30;99.90
15916;DHT22;8057;47.830;-3.870;2023-05-20T09:19:29;16.50;99.90
15916;DHT22;8057;47.830;-3.870;2023-05-20T09:23:46;16.50;99.90
15916;DHT22;8057;47.830;-3.870;2023-05-20T09:27:58;16.70;99.90
15916;DHT22;8057;47.830;-3.870;2023-05-20T09:32:07;16.90;99.90
15916;DHT22;8057;47.830;-3.870;2023-05-20T09:36:18;17.00;99.90
15916;DHT22;8057;47.830;-3.870;2023-05-20T09:40:28;17.00;99.90
15916;DHT22;8057;47.830;-3.870;2023-05-20T09:44:40;17.10;99.90
15916;DHT22;8057;47.830;-3.870;2023-05-20T09:48:49;17.20;99.90
15916;DHT22;8057;47.830;-3.870;2023-05-20T09:53:03;17.40;99.90
15916;DHT22;8057;47.830;-3.870;2023-05-20T09:57:13;17.70;99.90
15916;DHT22;8057;47.830;-3.870;2023-05-20T10:01:24;17.90;99.90
15916;DHT22;8057;47.830;-3.870;2023-05-20T10:05:36;18.00;99.90
15916;DHT22;8057;47.830;-3.870;2023-05-20T10:09:57;18.10;99.90
15916;DHT22;8057;47.830;-3.870;2023-05-20T10:14:29;17.90;99.90
15916;DHT22;8057;47.830;-3.870;2023-05-20T10:18:50;18.00;99.90
15916;DHT22;8057;47.830;-3.870;2023-05-20T10:23:02;18.20;99.90
15916;DHT22;8057;47.830;-3.870;2023-05-20T10:27:13;18.00;99.90
15916;DHT22;8057;47.830;-3.870;2023-05-20T10:31:22;18.30;99.90
15916;DHT22;8057;47.830;-3.870;2023-05-20T10:35:33;18.30;99.90
15916;DHT22;8057;47.830;-3.870;2023-05-20T10:39:43;18.70;99.90
15916;DHT22;8057;47.830;-3.870;2023-05-20T10:43:59;18.50;99.90
15916;DHT22;8057;47.830;-3.870;2023-05-20T10:48:19;18.60;99.90
15916;DHT22;8057;47.830;-3.870;2023-05-20T10:52:32;19.10;99.90
15916;DHT22;8057;47.830;-3.870;2023-05-20T10:56:50;19.30;99.90
15916;DHT22;8057;47.830;-3.870;2023-05-20T11:01:02;19.20;99.90
15916;DHT22;8057;47.830;-3.870;2023-05-20T11:05:13;19.30;99.90
15916;DHT22;8057;47.830;-3.870;2023-05-20T11:09:26;19.60;99.90
15916;DHT22;8057;47.830;-3.870;2023-05-20T11:13:37;19.60;99.90
15916;DHT22;8057;47.830;-3.870;2023-05-20T11:17:54;20.00;99.90
15916;DHT22;8057;47.830;-3.870;2023-05-20T11:22:06;20.00;99.90
15916;DHT22;8057;47.830;-3.870;2023-05-20T11:26:17;20.40;99.90
15916;DHT22;8057;47.830;-3.870;2023-05-20T11:30:29;20.10;99.90
15916;DHT22;8057;47.830;-3.870;2023-05-20T11:34:40;20.40;99.90
15916;DHT22;8057;47.830;-3.870;2023-05-20T11:38:51;19.70;99.90
15916;DHT22;8057;47.830;-3.870;2023-05-20T11:43:02;19.30;99.90
15916;DHT22;8057;47.830;-3.870;2023-05-20T11:47:12;19.70;99.90
15916;DHT22;8057;47.830;-3.870;2023-05-20T11:51:26;19.60;99.90
15916;DHT22;8057;47.830;-3.870;2023-05-20T11:55:44;19.50;99.90
15916;DHT22;8057;47.830;-3.870;2023-05-20T11:59:55;19.80;99.90
15916;DHT22;8057;47.830;-3.870;2023-05-20T12:04:05;20.00;99.90
15916;DHT22;8057;47.830;-3.870;2023-05-20T12:08:15;19.80;99.90
15916;DHT22;8057;47.830;-3.870;2023-05-20T12:12:24;19.70;99.90
15916;DHT22;8057;47.830;-3.870;2023-05-20T12:16:36;19.50;99.90
15916;DHT22;8057;47.830;-3.870;2023-05-20T12:20:46;19.70;99.90
15916;DHT22;8057;47.830;-3.870;2023-05-20T12:24:55;19.70;99.90
15916;DHT22;8057;47.830;-3.870;2023-05-20T12:29:05;19.80;99.90
15916;DHT22;8057;47.830;-3.870;2023-05-20T12:33:16;19.60;99.90
15916;DHT22;8057;47.830;-3.870;2023-05-20T12:37:27;19.50;99.90
15916;DHT22;8057;47.830;-3.870;2023-05-20T12:41:36;19.90;99.90
15916;DHT22;8057;47.830;-3.870;2023-05-20T12:45:45;19.20;99.90
15916;DHT22;8057;47.830;-3.870;2023-05-20T12:49:57;19.40;99.90
15916;DHT22;8057;47.830;-3.870;2023-05-20T12:54:06;19.30;99.90
15916;DHT22;8057;47.830;-3.870;2023-05-20T12:58:16;19.70;99.90
15916;DHT22;8057;47.830;-3.870;2023-05-20T13:02:25;20.00;99.90
15916;DHT22;8057;47.830;-3.870;2023-05-20T13:06:36;20.20;99.90
15916;DHT22;8057;47.830;-3.870;2023-05-20T13:10:46;20.30;99.90
15916;DHT22;8057;47.830;-3.870;2023-05-20T13:14:55;20.00;99.90
15916;DHT22;8057;47.830;-3.870;2023-05-20T13:19:05;20.30;99.90
15916;DHT22;8057;47.830;-3.870;2023-05-20T13:23:16;20.20;99.90
15916;DHT22;8057;47.830;-3.870;2023-05-20T13:27:25;19.30;99.90
15916;DHT22;8057;47.830;-3.870;2023-05-20T13:31:35;19.10;99.90
15916;DHT22;8057;47.830;-3.870;2023-05-20T13:35:44;19.10;99.90
15916;DHT22;8057;47.830;-3.870;2023-05-20T13:39:55;19.60;99.90
15916;DHT22;8057;47.830;-3.870;2023-05-20T13:44:05;19.80;99.90
15916;DHT22;8057;47.830;-3.870;2023-05-20T13:48:14;20.30;99.90
15916;DHT22;8057;47.830;-3.870;2023-05-20T13:52:23;20.70;99.90
15916;DHT22;8057;47.830;-3.870;2023-05-20T13:56:35;20.00;99.90
15916;DHT22;8057;47.830;-3.870;2023-05-20T14:00:45;20.40;99.90
15916;DHT22;8057;47.830;-3.870;2023-05-20T14:04:54;20.80;99.90
15916;DHT22;8057;47.830;-3.870;2023-05-20T14:09:06;20.40;99.90
15916;DHT22;8057;47.830;-3.870;2023-05-20T14:13:18;20.50;99.90
15916;DHT22;8057;47.830;-3.870;2023-05-20T14:17:27;20.10;99.90
15916;DHT22;8057;47.830;-3.870;2023-05-20T14:21:36;19.40;99.90
15916;DHT22;8057;47.830;-3.870;2023-05-20T14:25:46;19.90;99.90
15916;DHT22;8057;47.830;-3.870;2023-05-20T14:29:56;19.90;99.90
15916;DHT22;8057;47.830;-3.870;2023-05-20T14:34:06;19.40;99.90
15916;DHT22;8057;47.830;-3.870;2023-05-20T14:38:15;19.60;99.90
15916;DHT22;8057;47.830;-3.870;2023-05-20T14:42:25;20.40;99.90
15916;DHT22;8057;47.830;-3.870;2023-05-20T14:46:38;20.10;99.90
15916;DHT22;8057;47.830;-3.870;2023-05-20T14:50:48;19.80;99.90
15916;DHT22;8057;47.830;-3.870;2023-05-20T14:54:57;20.40;99.90
15916;DHT22;8057;47.830;-3.870;2023-05-20T14:59:07;20.40;99.90
15916;DHT22;8057;47.830;-3.870;2023-05-20T15:03:18;19.80;99.90
15916;DHT22;8057;47.830;-3.870;2023-05-20T15:07:27;19.90;99.90
15916;DHT22;8057;47.830;-3.870;2023-05-20T15:11:37;20.40;99.90
15916;DHT22;8057;47.830;-3.870;2023-05-20T15:15:46;20.10;99.90
15916;DHT22;8057;47.830;-3.870;2023-05-20T15:19:57;19.90;99.90
15916;DHT22;8057;47.830;-3.870;2023-05-20T15:24:06;20.10;99.90
15916;DHT22;8057;47.830;-3.870;2023-05-20T15:28:15;20.20;99.90
15916;DHT22;8057;47.830;-3.870;2023-05-20T15:32:27;20.20;99.90
15916;DHT22;8057;47.830;-3.870;2023-05-20T15:36:38;20.00;99.90
15916;DHT22;8057;47.830;-3.870;2023-05-20T15:40:48;20.30;99.90
15916;DHT22;8057;47.830;-3.870;2023-05-20T15:44:57;20.20;99.90
15916;DHT22;8057;47.830;-3.870;2023-05-20T15:49:06;20.00;99.90
15916;DHT22;8057;47.830;-3.870;2023-05-20T15:53:17;19.90;99.90
15916;DHT22;8057;47.830;-3.870;2023-05-20T15:57:26;20.10;99.90
15916;DHT22;8057;47.830;-3.870;2023-05-20T16:01:37;19.80;99.90
15916;DHT22;8057;47.830;-3.870;2023-05-20T16:05:46;19.70;99.90
15916;DHT22;8057;47.830;-3.870;2023-05-20T16:09:57;19.80;99.90
15916;DHT22;8057;47.830;-3.870;2023-05-20T16:14:06;19.70;99.90
15916;DHT22;8057;47.830;-3.870;2023-05-20T16:18:16;19.70;99.90
15916;DHT22;8057;47.830;-3.870;2023-05-20T16:22:25;19.40;99.90
15916;DHT22;8057;47.830;-3.870;2023-05-20T16:26:36;19.60;99.90
15916;DHT22;8057;47.830;-3.870;2023-05-20T16:30:46;19.70;99.90
15916;DHT22;8057;47.830;-3.870;2023-05-20T16:34:56;19.20;99.90
15916;DHT22;8057;47.830;-3.870;2023-05-20T16:39:05;18.90;99.90
15916;DHT22;8057;47.830;-3.870;2023-05-20T16:43:15;19.20;99.90
15916;DHT22;8057;47.830;-3.870;2023-05-20T16:47:25;19.20;99.90
15916;DHT22;8057;47.830;-3.870;2023-05-20T16:51:34;19.00;99.90
15916;DHT22;8057;47.830;-3.870;2023-05-20T16:55:43;19.00;99.90
15916;DHT22;8057;47.830;-3.870;2023-05-20T16:59:54;19.00;99.90
15916;DHT22;8057;47.830;-3.870;2023-05-20T17:04:04;18.90;99.90
15916;DHT22;8057;47.830;-3.870;2023-05-20T17:08:14;19.20;99.90
15916;DHT22;8057;47.830;-3.870;2023-05-20T17:12:23;19.00;99.90
15916;DHT22;8057;47.830;-3.870;2023-05-20T17:16:34;18.90;99.90
15916;DHT22;8057;47.830;-3.870;2023-05-20T17:20:43;18.80;99.90
15916;DHT22;8057;47.830;-3.870;2023-05-20T17:24:54;18.70;99.90
15916;DHT22;8057;47.830;-3.870;2023-05-20T17:29:03;18.90;99.90
15916;DHT22;8057;47.830;-3.870;2023-05-20T17:33:14;19.00;99.90
15916;DHT22;8057;47.830;-3.870;2023-05-20T17:37:23;18.70;99.90
15916;DHT22;8057;47.830;-3.870;2023-05-20T17:41:33;18.40;99.90
15916;DHT22;8057;47.830;-3.870;2023-05-20T17:45:42;18.50;99.90
15916;DHT22;8057;47.830;-3.870;2023-05-20T17:49:53;18.40;99.90
15916;DHT22;8057;47.830;-3.870;2023-05-20T17:54:03;18.10;99.90
15916;DHT22;8057;47.830;-3.870;2023-05-20T17:58:12;18.10;99.90
15916;DHT22;8057;47.830;-3.870;2023-05-20T18:02:22;18.00;99.90
15916;DHT22;8057;47.830;-3.870;2023-05-20T18:06:33;18.00;99.90
15916;DHT22;8057;47.830;-3.870;2023-05-20T18:10:42;17.90;99.90
15916;DHT22;8057;47.830;-3.870;2023-05-20T18:14:51;17.80;99.90
15916;DHT22;8057;47.830;-3.870;2023-05-20T18:19:00;17.60;99.90
15916;DHT22;8057;47.830;-3.870;2023-05-20T18:23:11;17.50;99.90
15916;DHT22;8057;47.830;-3.870;2023-05-20T18:27:21;17.30;99.90
15916;DHT22;8057;47.830;-3.870;2023-05-20T18:31:30;17.30;99.90
15916;DHT22;8057;47.830;-3.870;2023-05-20T18:35:39;17.40;99.90
15916;DHT22;8057;47.830;-3.870;2023-05-20T18:39:50;17.20;99.90
15916;DHT22;8057;47.830;-3.870;2023-05-20T18:43:59;17.00;99.90
15916;DHT22;8057;47.830;-3.870;2023-05-20T18:48:11;16.70;99.90
15916;DHT22;8057;47.830;-3.870;2023-05-20T18:52:32;16.50;99.90
15916;DHT22;8057;47.830;-3.870;2023-05-20T18:56:43;16.40;99.90
15916;DHT22;8057;47.830;-3.870;2023-05-20T19:00:54;16.30;99.90
15916;DHT22;8057;47.830;-3.870;2023-05-20T19:05:05;16.10;99.90
15916;DHT22;8057;47.830;-3.870;2023-05-20T19:09:15;16.10;99.90
15916;DHT22;8057;47.830;-3.870;2023-05-20T19:13:27;16.00;99.90
15916;DHT22;8057;47.830;-3.870;2023-05-20T19:17:37;15.90;99.90
15916;DHT22;8057;47.830;-3.870;2023-05-20T19:21:46;15.80;99.90
15916;DHT22;8057;47.830;-3.870;2023-05-20T19:25:55;15.60;99.90
15916;DHT22;8057;47.830;-3.870;2023-05-20T19:30:07;15.50;99.90
15916;DHT22;8057;47.830;-3.870;2023-05-20T19:34:17;15.50;99.90
15916;DHT22;8057;47.830;-3.870;2023-05-20T19:38:26;15.30;99.90
15916;DHT22;8057;47.830;-3.870;2023-05-20T19:42:35;15.20;99.90
15916;DHT22;8057;47.830;-3.870;2023-05-20T19:46:46;15.10;99.90
15916;DHT22;8057;47.830;-3.870;2023-05-20T19:50:57;15.00;99.90
15916;DHT22;8057;47.830;-3.870;2023-05-20T19:55:06;14.90;99.90
15916;DHT22;8057;47.830;-3.870;2023-05-20T19:59:16;14.80;99.90
15916;DHT22;8057;47.830;-3.870;2023-05-20T20:03:27;14.70;99.90
15916;DHT22;8057;47.830;-3.870;2023-05-20T20:07:36;14.60;99.90
15916;DHT22;8057;47.830;-3.870;2023-05-20T20:11:46;14.50;99.90
15916;DHT22;8057;47.830;-3.870;2023-05-20T20:15:55;14.40;99.90
15916;DHT22;8057;47.830;-3.870;2023-05-20T20:20:07;14.30;99.90
15916;DHT22;8057;47.830;-3.870;2023-05-20T20:24:18;14.30;99.90
15916;DHT22;8057;47.830;-3.870;2023-05-20T20:28:27;14.20;99.90
15916;DHT22;8057;47.830;-3.870;2023-05-20T20:32:36;14.10;99.90
15916;DHT22;8057;47.830;-3.870;2023-05-20T20:36:47;14.00;99.90
15916;DHT22;8057;47.830;-3.870;2023-05-20T20:40:57;14.00;99.90
15916;DHT22;8057;47.830;-3.870;2023-05-20T20:45:10;13.90;99.90
15916;DHT22;8057;47.830;-3.870;2023-05-20T20:49:21;13.90;99.90
15916;DHT22;8057;47.830;-3.870;2023-05-20T20:53:34;13.90;99.90
15916;DHT22;8057;47.830;-3.870;2023-05-20T20:57:43;13.80;99.90
15916;DHT22;8057;47.830;-3.870;2023-05-20T21:01:53;13.70;99.90
15916;DHT22;8057;47.830;-3.870;2023-05-20T21:06:02;13.70;99.90
15916;DHT22;8057;47.830;-3.870;2023-05-20T21:10:13;13.70;99.90
15916;DHT22;8057;47.830;-3.870;2023-05-20T21:14:22;13.60;99.90
15916;DHT22;8057;47.830;-3.870;2023-05-20T21:18:31;13.60;99.90
15916;DHT22;8057;47.830;-3.870;2023-05-20T21:22:40;13.50;99.90
15916;DHT22;8057;47.830;-3.870;2023-05-20T21:26:51;13.50;99.90
15916;DHT22;8057;47.830;-3.870;2023-05-20T21:31:01;13.40;99.90
15916;DHT22;8057;47.830;-3.870;2023-05-20T21:35:10;13.40;99.90
15916;DHT22;8057;47.830;-3.870;2023-05-20T21:39:19;13.30;99.90
15916;DHT22;8057;47.830;-3.870;2023-05-20T21:43:30;13.40;99.90
15916;DHT22;8057;47.830;-3.870;2023-05-20T21:47:39;13.30;99.90
15916;DHT22;8057;47.830;-3.870;2023-05-20T21:51:48;13.30;99.90
15916;DHT22;8057;47.830;-3.870;2023-05-20T21:55:58;13.20;99.90
15916;DHT22;8057;47.830;-3.870;2023-05-20T22:00:10;13.20;99.90
15916;DHT22;8057;47.830;-3.870;2023-05-20T22:04:25;13.10;99.90
15916;DHT22;8057;47.830;-3.870;2023-05-20T22:08:35;13.10;99.90
15916;DHT22;8057;47.830;-3.870;2023-05-20T22:12:44;13.00;99.90
15916;DHT22;8057;47.830;-3.870;2023-05-20T22:16:55;12.90;99.90
15916;DHT22;8057;47.830;-3.870;2023-05-20T22:21:05;12.90;99.90
15916;DHT22;8057;47.830;-3.870;2023-05-20T22:25:14;12.90;99.90
15916;DHT22;8057;47.830;-3.870;2023-05-20T22:29:23;13.00;99.90
15916;DHT22;8057;47.830;-3.870;2023-05-20T22:33:34;13.00;99.90
15916;DHT22;8057;47.830;-3.870;2023-05-20T22:37:43;12.90;99.90
15916;DHT22;8057;47.830;-3.870;2023-05-20T22:41:53;13.00;99.90
15916;DHT22;8057;47.830;-3.870;2023-05-20T22:46:02;12.90;99.90
15916;DHT22;8057;47.830;-3.870;2023-05-20T22:50:13;12.80;99.90
15916;DHT22;8057;47.830;-3.870;2023-05-20T22:54:22;12.80;99.90
15916;DHT22;8057;47.830;-3.870;2023-05-20T22:58:31;12.80;99.90
15916;DHT22;8057;47.830;-3.870;2023-05-20T23:02:45;12.80;99.90
15916;DHT22;8057;47.830;-3.870;2023-05-20T23:06:58;12.80;99.90
15916;DHT22;8057;47.830;-3.870;2023-05-20T23:11:07;12.80;99.90
15916;DHT22;8057;47.830;-3.870;2023-05-20T23:15:17;12.80;99.90
15916;DHT22;8057;47.830;-3.870;2023-05-20T23:19:26;12.80;99.90
15916;DHT22;8057;47.830;-3.870;2023-05-20T23:23:37;12.70;99.90
15916;DHT22;8057;47.830;-3.870;2023-05-20T23:27:47;12.70;99.90
15916;DHT22;8057;47.830;-3.870;2023-05-20T23:31:56;12.70;99.90
15916;DHT22;8057;47.830;-3.870;2023-05-20T23:36:05;12.60;99.90
15916;DHT22;8057;47.830;-3.870;2023-05-20T23:40:17;12.60;99.90
15916;DHT22;8057;47.830;-3.870;2023-05-20T23:44:26;12.60;99.90
15916;DHT22;8057;47.830;-3.870;2023-05-20T23:48:35;12.50;99.90
15916;DHT22;8057;47.830;-3.870;2023-05-20T23:52:45;12.60;99.90
15916;DHT22;8057;47.830;-3.870;2023-05-20T23:56:55;12.60;99.90
